sensor_id;sensor_type;location;lat;lon;timestamp;P1;durP1;ratioP1;P2;durP2;ratioP2
72117;SDS011;59992;47.490;8.736;2023-02-20T00:00:44;2.90;;;1.20;;
72117;SDS011;59992;47.490;8.736;2023-02-20T00:03:13;5.20;;;1.30;;
72117;SDS011;59992;47.490;8.736;2023-02-20T00:05:41;3.80;;;1.50;;
72117;SDS011;59992;47.490;8.736;2023-02-20T00:08:08;2.80;;;1.20;;
72117;SDS011;59992;47.490;8.736;2023-02-20T00:10:36;3.10;;;1.20;;
72117;SDS011;59992;47.490;8.736;2023-02-20T00:13:04;3.30;;;1.10;;
72117;SDS011;59992;47.490;8.736;2023-02-20T00:15:32;4.40;;;1.30;;
72117;SDS011;59992;47.490;8.736;2023-02-20T00:18:00;3.20;;;1.30;;
72117;SDS011;59992;47.490;8.736;2023-02-20T00:20:27;2.90;;;1.30;;
72117;SDS011;59992;47.490;8.736;2023-02-20T00:22:57;2.90;;;1.40;;
72117;SDS011;59992;47.490;8.736;2023-02-20T00:25:26;4.60;;;1.10;;
72117;SDS011;59992;47.490;8.736;2023-02-20T00:27:54;3.20;;;1.20;;
72117;SDS011;59992;47.490;8.736;2023-02-20T00:30:23;3.10;;;1.10;;
72117;SDS011;59992;47.490;8.736;2023-02-20T00:32:53;5.90;;;1.50;;
72117;SDS011;59992;47.490;8.736;2023-02-20T00:35:23;5.20;;;1.20;;
72117;SDS011;59992;47.490;8.736;2023-02-20T00:37:52;3.60;;;1.40;;
72117;SDS011;59992;47.490;8.736;2023-02-20T00:40:21;3.00;;;1.20;;
72117;SDS011;59992;47.490;8.736;2023-02-20T00:42:51;4.50;;;1.40;;
72117;SDS011;59992;47.490;8.736;2023-02-20T00:45:19;3.40;;;1.00;;
72117;SDS011;59992;47.490;8.736;2023-02-20T00:47:46;3.20;;;1.40;;
72117;SDS011;59992;47.490;8.736;2023-02-20T00:50:14;2.00;;;1.00;;
72117;SDS011;59992;47.490;8.736;2023-02-20T00:52:43;3.60;;;1.10;;
72117;SDS011;59992;47.490;8.736;2023-02-20T00:55:10;3.80;;;1.20;;
72117;SDS011;59992;47.490;8.736;2023-02-20T00:57:39;2.60;;;1.30;;
72117;SDS011;59992;47.490;8.736;2023-02-20T01:00:07;6.10;;;1.20;;
72117;SDS011;59992;47.490;8.736;2023-02-20T01:02:41;4.30;;;1.40;;
72117;SDS011;59992;47.490;8.736;2023-02-20T01:05:09;4.00;;;1.40;;
72117;SDS011;59992;47.490;8.736;2023-02-20T01:07:37;3.90;;;1.20;;
72117;SDS011;59992;47.490;8.736;2023-02-20T01:10:06;2.80;;;1.20;;
72117;SDS011;59992;47.490;8.736;2023-02-20T01:12:34;5.30;;;1.20;;
72117;SDS011;59992;47.490;8.736;2023-02-20T01:15:02;4.60;;;1.40;;
72117;SDS011;59992;47.490;8.736;2023-02-20T01:17:31;3.70;;;1.40;;
72117;SDS011;59992;47.490;8.736;2023-02-20T01:19:59;3.20;;;1.20;;
72117;SDS011;59992;47.490;8.736;2023-02-20T01:22:26;2.40;;;1.00;;
72117;SDS011;59992;47.490;8.736;2023-02-20T01:24:54;3.10;;;1.10;;
72117;SDS011;59992;47.490;8.736;2023-02-20T01:27:22;1.90;;;1.20;;
72117;SDS011;59992;47.490;8.736;2023-02-20T01:29:50;4.30;;;1.30;;
72117;SDS011;59992;47.490;8.736;2023-02-20T01:32:17;3.90;;;1.20;;
72117;SDS011;59992;47.490;8.736;2023-02-20T01:34:45;4.80;;;1.30;;
72117;SDS011;59992;47.490;8.736;2023-02-20T01:37:13;4.70;;;1.60;;
72117;SDS011;59992;47.490;8.736;2023-02-20T01:39:41;4.40;;;1.30;;
72117;SDS011;59992;47.490;8.736;2023-02-20T01:42:10;6.90;;;1.50;;
72117;SDS011;59992;47.490;8.736;2023-02-20T01:44:42;3.90;;;1.30;;
72117;SDS011;59992;47.490;8.736;2023-02-20T01:47:10;3.30;;;1.50;;
72117;SDS011;59992;47.490;8.736;2023-02-20T01:49:41;4.20;;;1.40;;
72117;SDS011;59992;47.490;8.736;2023-02-20T01:52:13;3.40;;;1.20;;
72117;SDS011;59992;47.490;8.736;2023-02-20T01:54:45;2.90;;;1.20;;
72117;SDS011;59992;47.490;8.736;2023-02-20T01:57:19;4.10;;;1.30;;
72117;SDS011;59992;47.490;8.736;2023-02-20T01:59:50;4.50;;;1.30;;
72117;SDS011;59992;47.490;8.736;2023-02-20T02:02:20;3.10;;;1.50;;
72117;SDS011;59992;47.490;8.736;2023-02-20T02:04:48;3.00;;;1.30;;
72117;SDS011;59992;47.490;8.736;2023-02-20T02:07:16;3.20;;;1.30;;
72117;SDS011;59992;47.490;8.736;2023-02-20T02:09:46;2.00;;;1.10;;
72117;SDS011;59992;47.490;8.736;2023-02-20T02:12:19;3.60;;;1.50;;
72117;SDS011;59992;47.490;8.736;2023-02-20T02:14:46;5.20;;;1.40;;
72117;SDS011;59992;47.490;8.736;2023-02-20T02:23:32;1.80;;;1.10;;
72117;SDS011;59992;47.490;8.736;2023-02-20T02:26:29;2.30;;;1.20;;
72117;SDS011;59992;47.490;8.736;2023-02-20T02:32:25;4.50;;;1.10;;
72117;SDS011;59992;47.490;8.736;2023-02-20T02:35:22;4.80;;;1.20;;
72117;SDS011;59992;47.490;8.736;2023-02-20T02:38:07;3.80;;;1.20;;
72117;SDS011;59992;47.490;8.736;2023-02-20T02:40:46;2.00;;;1.10;;
72117;SDS011;59992;47.490;8.736;2023-02-20T02:43:21;4.90;;;1.50;;
72117;SDS011;59992;47.490;8.736;2023-02-20T02:45:55;3.80;;;1.30;;
72117;SDS011;59992;47.490;8.736;2023-02-20T02:48:27;3.40;;;1.30;;
72117;SDS011;59992;47.490;8.736;2023-02-20T02:51:00;3.60;;;1.30;;
72117;SDS011;59992;47.490;8.736;2023-02-20T02:53:31;3.80;;;1.30;;
72117;SDS011;59992;47.490;8.736;2023-02-20T02:55:59;5.60;;;1.40;;
72117;SDS011;59992;47.490;8.736;2023-02-20T02:58:47;6.20;;;1.60;;
72117;SDS011;59992;47.490;8.736;2023-02-20T03:01:16;2.70;;;0.80;;
72117;SDS011;59992;47.490;8.736;2023-02-20T03:03:47;4.40;;;1.50;;
72117;SDS011;59992;47.490;8.736;2023-02-20T03:06:17;2.30;;;1.20;;
72117;SDS011;59992;47.490;8.736;2023-02-20T03:08:52;4.10;;;1.60;;
72117;SDS011;59992;47.490;8.736;2023-02-20T03:11:23;5.30;;;1.60;;
72117;SDS011;59992;47.490;8.736;2023-02-20T03:13:56;4.50;;;1.10;;
72117;SDS011;59992;47.490;8.736;2023-02-20T03:16:48;3.40;;;1.20;;
72117;SDS011;59992;47.490;8.736;2023-02-20T03:19:21;2.70;;;1.30;;
72117;SDS011;59992;47.490;8.736;2023-02-20T03:21:53;3.20;;;1.30;;
72117;SDS011;59992;47.490;8.736;2023-02-20T03:24:24;3.80;;;1.40;;
72117;SDS011;59992;47.490;8.736;2023-02-20T03:26:54;2.60;;;1.30;;
72117;SDS011;59992;47.490;8.736;2023-02-20T03:29:24;1.70;;;1.20;;
72117;SDS011;59992;47.490;8.736;2023-02-20T03:31:59;3.50;;;1.10;;
72117;SDS011;59992;47.490;8.736;2023-02-20T03:34:49;4.40;;;1.40;;
72117;SDS011;59992;47.490;8.736;2023-02-20T03:37:37;3.90;;;1.10;;
72117;SDS011;59992;47.490;8.736;2023-02-20T03:40:26;4.90;;;1.40;;
72117;SDS011;59992;47.490;8.736;2023-02-20T03:43:16;6.50;;;1.40;;
72117;SDS011;59992;47.490;8.736;2023-02-20T03:45:49;5.10;;;1.40;;
72117;SDS011;59992;47.490;8.736;2023-02-20T03:48:18;5.20;;;1.40;;
72117;SDS011;59992;47.490;8.736;2023-02-20T03:50:51;2.70;;;1.00;;
72117;SDS011;59992;47.490;8.736;2023-02-20T03:53:18;2.10;;;1.10;;
72117;SDS011;59992;47.490;8.736;2023-02-20T03:55:46;5.10;;;1.50;;
72117;SDS011;59992;47.490;8.736;2023-02-20T03:58:17;5.20;;;1.40;;
72117;SDS011;59992;47.490;8.736;2023-02-20T04:00:50;3.70;;;1.80;;
72117;SDS011;59992;47.490;8.736;2023-02-20T04:03:22;3.30;;;1.30;;
72117;SDS011;59992;47.490;8.736;2023-02-20T04:05:55;2.50;;;1.20;;
72117;SDS011;59992;47.490;8.736;2023-02-20T04:08:25;3.60;;;1.40;;
72117;SDS011;59992;47.490;8.736;2023-02-20T04:11:02;2.80;;;1.20;;
72117;SDS011;59992;47.490;8.736;2023-02-20T04:13:34;3.50;;;1.50;;
72117;SDS011;59992;47.490;8.736;2023-02-20T04:16:04;3.40;;;1.20;;
72117;SDS011;59992;47.490;8.736;2023-02-20T04:18:33;4.60;;;1.30;;
72117;SDS011;59992;47.490;8.736;2023-02-20T04:21:02;3.80;;;1.50;;
72117;SDS011;59992;47.490;8.736;2023-02-20T04:23:35;5.10;;;1.70;;
72117;SDS011;59992;47.490;8.736;2023-02-20T04:26:10;4.00;;;1.50;;
72117;SDS011;59992;47.490;8.736;2023-02-20T04:28:41;3.50;;;1.40;;
72117;SDS011;59992;47.490;8.736;2023-02-20T04:31:10;3.30;;;1.40;;
72117;SDS011;59992;47.490;8.736;2023-02-20T04:33:41;3.20;;;1.50;;
72117;SDS011;59992;47.490;8.736;2023-02-20T04:36:09;3.70;;;1.40;;
72117;SDS011;59992;47.490;8.736;2023-02-20T04:38:37;5.10;;;1.60;;
72117;SDS011;59992;47.490;8.736;2023-02-20T04:41:05;3.60;;;1.70;;
72117;SDS011;59992;47.490;8.736;2023-02-20T04:43:32;5.10;;;1.60;;
72117;SDS011;59992;47.490;8.736;2023-02-20T04:46:00;3.90;;;1.30;;
72117;SDS011;59992;47.490;8.736;2023-02-20T04:48:27;3.10;;;1.30;;
72117;SDS011;59992;47.490;8.736;2023-02-20T04:50:55;3.30;;;1.60;;
72117;SDS011;59992;47.490;8.736;2023-02-20T04:53:22;3.90;;;1.60;;
72117;SDS011;59992;47.490;8.736;2023-02-20T04:55:50;7.00;;;1.50;;
72117;SDS011;59992;47.490;8.736;2023-02-20T04:58:18;5.10;;;1.90;;
72117;SDS011;59992;47.490;8.736;2023-02-20T05:00:45;4.00;;;1.50;;
72117;SDS011;59992;47.490;8.736;2023-02-20T05:03:13;3.80;;;1.40;;
72117;SDS011;59992;47.490;8.736;2023-02-20T05:05:41;4.50;;;1.60;;
72117;SDS011;59992;47.490;8.736;2023-02-20T05:08:09;4.30;;;1.60;;
72117;SDS011;59992;47.490;8.736;2023-02-20T05:10:37;3.00;;;1.70;;
72117;SDS011;59992;47.490;8.736;2023-02-20T05:13:05;5.60;;;1.80;;
72117;SDS011;59992;47.490;8.736;2023-02-20T05:15:33;3.00;;;1.80;;
72117;SDS011;59992;47.490;8.736;2023-02-20T05:18:00;5.00;;;1.70;;
72117;SDS011;59992;47.490;8.736;2023-02-20T05:20:28;3.10;;;1.50;;
72117;SDS011;59992;47.490;8.736;2023-02-20T05:23:15;3.30;;;1.60;;
72117;SDS011;59992;47.490;8.736;2023-02-20T05:25:42;3.60;;;1.70;;
72117;SDS011;59992;47.490;8.736;2023-02-20T05:28:10;4.10;;;1.80;;
72117;SDS011;59992;47.490;8.736;2023-02-20T05:30:38;3.00;;;1.50;;
72117;SDS011;59992;47.490;8.736;2023-02-20T05:33:05;3.20;;;1.60;;
72117;SDS011;59992;47.490;8.736;2023-02-20T05:35:33;3.50;;;1.60;;
72117;SDS011;59992;47.490;8.736;2023-02-20T05:38:02;2.50;;;1.80;;
72117;SDS011;59992;47.490;8.736;2023-02-20T05:40:29;3.40;;;1.80;;
72117;SDS011;59992;47.490;8.736;2023-02-20T05:42:57;3.70;;;1.70;;
72117;SDS011;59992;47.490;8.736;2023-02-20T05:45:25;4.20;;;1.90;;
72117;SDS011;59992;47.490;8.736;2023-02-20T05:47:53;4.20;;;2.00;;
72117;SDS011;59992;47.490;8.736;2023-02-20T05:50:23;4.10;;;1.90;;
72117;SDS011;59992;47.490;8.736;2023-02-20T05:52:51;3.00;;;1.70;;
72117;SDS011;59992;47.490;8.736;2023-02-20T05:55:18;4.20;;;1.90;;
72117;SDS011;59992;47.490;8.736;2023-02-20T05:57:46;5.30;;;1.90;;
72117;SDS011;59992;47.490;8.736;2023-02-20T06:00:14;3.90;;;1.70;;
72117;SDS011;59992;47.490;8.736;2023-02-20T06:02:42;5.00;;;1.70;;
72117;SDS011;59992;47.490;8.736;2023-02-20T06:05:10;5.70;;;2.20;;
72117;SDS011;59992;47.490;8.736;2023-02-20T06:07:37;3.30;;;2.00;;
72117;SDS011;59992;47.490;8.736;2023-02-20T06:10:05;4.90;;;1.70;;
72117;SDS011;59992;47.490;8.736;2023-02-20T06:12:33;7.50;;;2.20;;
72117;SDS011;59992;47.490;8.736;2023-02-20T06:15:01;5.30;;;2.30;;
72117;SDS011;59992;47.490;8.736;2023-02-20T06:17:28;4.90;;;1.90;;
72117;SDS011;59992;47.490;8.736;2023-02-20T06:19:58;3.70;;;1.80;;
72117;SDS011;59992;47.490;8.736;2023-02-20T06:22:25;7.90;;;1.90;;
72117;SDS011;59992;47.490;8.736;2023-02-20T06:24:53;5.30;;;2.00;;
72117;SDS011;59992;47.490;8.736;2023-02-20T06:27:21;5.90;;;2.20;;
72117;SDS011;59992;47.490;8.736;2023-02-20T06:29:49;5.40;;;2.10;;
72117;SDS011;59992;47.490;8.736;2023-02-20T06:32:16;5.80;;;2.10;;
72117;SDS011;59992;47.490;8.736;2023-02-20T06:34:47;4.90;;;2.20;;
72117;SDS011;59992;47.490;8.736;2023-02-20T06:37:15;5.10;;;2.00;;
72117;SDS011;59992;47.490;8.736;2023-02-20T06:39:42;5.20;;;2.50;;
72117;SDS011;59992;47.490;8.736;2023-02-20T06:42:11;7.90;;;2.10;;
72117;SDS011;59992;47.490;8.736;2023-02-20T06:44:39;5.90;;;2.00;;
72117;SDS011;59992;47.490;8.736;2023-02-20T06:47:07;8.90;;;3.00;;
72117;SDS011;59992;47.490;8.736;2023-02-20T06:49:34;7.80;;;3.00;;
72117;SDS011;59992;47.490;8.736;2023-02-20T06:52:03;5.40;;;2.70;;
72117;SDS011;59992;47.490;8.736;2023-02-20T06:54:32;8.60;;;2.90;;
72117;SDS011;59992;47.490;8.736;2023-02-20T06:56:59;6.50;;;3.20;;
72117;SDS011;59992;47.490;8.736;2023-02-20T06:59:27;7.80;;;3.00;;
72117;SDS011;59992;47.490;8.736;2023-02-20T07:01:58;7.70;;;3.10;;
72117;SDS011;59992;47.490;8.736;2023-02-20T07:04:26;8.00;;;3.40;;
72117;SDS011;59992;47.490;8.736;2023-02-20T07:06:54;7.40;;;2.90;;
72117;SDS011;59992;47.490;8.736;2023-02-20T07:09:21;5.60;;;2.50;;
72117;SDS011;59992;47.490;8.736;2023-02-20T07:11:51;4.60;;;2.20;;
72117;SDS011;59992;47.490;8.736;2023-02-20T07:14:19;3.00;;;1.70;;
72117;SDS011;59992;47.490;8.736;2023-02-20T07:16:47;3.70;;;2.30;;
72117;SDS011;59992;47.490;8.736;2023-02-20T07:19:14;6.90;;;2.80;;
72117;SDS011;59992;47.490;8.736;2023-02-20T07:21:42;5.40;;;2.50;;
72117;SDS011;59992;47.490;8.736;2023-02-20T07:24:11;8.40;;;2.80;;
72117;SDS011;59992;47.490;8.736;2023-02-20T07:26:39;6.80;;;2.70;;
72117;SDS011;59992;47.490;8.736;2023-02-20T07:29:07;3.70;;;2.20;;
72117;SDS011;59992;47.490;8.736;2023-02-20T07:31:35;5.10;;;2.70;;
72117;SDS011;59992;47.490;8.736;2023-02-20T07:34:04;5.60;;;2.00;;
72117;SDS011;59992;47.490;8.736;2023-02-20T07:36:31;2.90;;;1.90;;
72117;SDS011;59992;47.490;8.736;2023-02-20T07:38:59;5.70;;;2.10;;
72117;SDS011;59992;47.490;8.736;2023-02-20T07:41:29;3.60;;;2.50;;
72117;SDS011;59992;47.490;8.736;2023-02-20T07:43:57;5.70;;;2.30;;
72117;SDS011;59992;47.490;8.736;2023-02-20T07:46:25;5.40;;;2.60;;
72117;SDS011;59992;47.490;8.736;2023-02-20T07:48:53;4.40;;;2.10;;
72117;SDS011;59992;47.490;8.736;2023-02-20T07:51:21;5.10;;;2.20;;
72117;SDS011;59992;47.490;8.736;2023-02-20T07:53:48;5.40;;;2.10;;
72117;SDS011;59992;47.490;8.736;2023-02-20T07:56:18;4.00;;;2.20;;
72117;SDS011;59992;47.490;8.736;2023-02-20T07:58:46;4.30;;;2.30;;
72117;SDS011;59992;47.490;8.736;2023-02-20T08:01:15;3.60;;;2.40;;
72117;SDS011;59992;47.490;8.736;2023-02-20T08:03:44;4.30;;;2.40;;
72117;SDS011;59992;47.490;8.736;2023-02-20T08:06:11;4.00;;;2.10;;
72117;SDS011;59992;47.490;8.736;2023-02-20T08:08:41;4.60;;;2.20;;
72117;SDS011;59992;47.490;8.736;2023-02-20T08:11:12;6.30;;;2.80;;
72117;SDS011;59992;47.490;8.736;2023-02-20T08:13:41;9.60;;;3.20;;
72117;SDS011;59992;47.490;8.736;2023-02-20T08:16:09;6.20;;;2.60;;
72117;SDS011;59992;47.490;8.736;2023-02-20T08:18:36;4.80;;;2.50;;
72117;SDS011;59992;47.490;8.736;2023-02-20T08:21:05;4.10;;;2.00;;
72117;SDS011;59992;47.490;8.736;2023-02-20T08:23:33;6.00;;;2.50;;
72117;SDS011;59992;47.490;8.736;2023-02-20T08:26:02;4.60;;;2.20;;
72117;SDS011;59992;47.490;8.736;2023-02-20T08:28:30;4.90;;;2.20;;
72117;SDS011;59992;47.490;8.736;2023-02-20T08:30:59;5.30;;;2.30;;
72117;SDS011;59992;47.490;8.736;2023-02-20T08:33:27;4.10;;;2.30;;
72117;SDS011;59992;47.490;8.736;2023-02-20T08:35:54;6.20;;;2.60;;
72117;SDS011;59992;47.490;8.736;2023-02-20T08:38:27;8.00;;;2.50;;
72117;SDS011;59992;47.490;8.736;2023-02-20T08:40:56;3.80;;;2.00;;
72117;SDS011;59992;47.490;8.736;2023-02-20T08:43:24;6.90;;;2.70;;
72117;SDS011;59992;47.490;8.736;2023-02-20T08:45:52;5.60;;;2.40;;
72117;SDS011;59992;47.490;8.736;2023-02-20T08:48:20;7.50;;;2.40;;
72117;SDS011;59992;47.490;8.736;2023-02-20T08:50:47;4.60;;;2.40;;
72117;SDS011;59992;47.490;8.736;2023-02-20T08:53:16;5.30;;;2.60;;
72117;SDS011;59992;47.490;8.736;2023-02-20T08:55:44;6.30;;;2.90;;
72117;SDS011;59992;47.490;8.736;2023-02-20T08:58:11;4.60;;;2.30;;
72117;SDS011;59992;47.490;8.736;2023-02-20T09:00:39;6.80;;;2.50;;
72117;SDS011;59992;47.490;8.736;2023-02-20T09:03:07;5.40;;;2.40;;
72117;SDS011;59992;47.490;8.736;2023-02-20T09:05:35;5.30;;;2.50;;
72117;SDS011;59992;47.490;8.736;2023-02-20T09:08:04;7.20;;;2.80;;
72117;SDS011;59992;47.490;8.736;2023-02-20T09:10:32;6.10;;;3.00;;
72117;SDS011;59992;47.490;8.736;2023-02-20T09:13:00;5.40;;;2.70;;
72117;SDS011;59992;47.490;8.736;2023-02-20T09:15:28;5.10;;;2.80;;
72117;SDS011;59992;47.490;8.736;2023-02-20T09:17:56;7.90;;;2.90;;
72117;SDS011;59992;47.490;8.736;2023-02-20T09:20:24;6.60;;;3.00;;
72117;SDS011;59992;47.490;8.736;2023-02-20T09:22:53;6.00;;;2.80;;
72117;SDS011;59992;47.490;8.736;2023-02-20T09:25:25;6.80;;;2.80;;
72117;SDS011;59992;47.490;8.736;2023-02-20T09:27:53;6.50;;;2.70;;
72117;SDS011;59992;47.490;8.736;2023-02-20T09:30:20;4.50;;;2.90;;
72117;SDS011;59992;47.490;8.736;2023-02-20T09:32:48;6.20;;;3.00;;
72117;SDS011;59992;47.490;8.736;2023-02-20T09:35:17;6.10;;;3.00;;
72117;SDS011;59992;47.490;8.736;2023-02-20T09:37:46;6.80;;;2.40;;
72117;SDS011;59992;47.490;8.736;2023-02-20T09:40:14;5.20;;;2.90;;
72117;SDS011;59992;47.490;8.736;2023-02-20T09:42:45;6.10;;;2.70;;
72117;SDS011;59992;47.490;8.736;2023-02-20T09:45:24;5.30;;;2.90;;
72117;SDS011;59992;47.490;8.736;2023-02-20T09:48:03;6.10;;;3.00;;
72117;SDS011;59992;47.490;8.736;2023-02-20T09:50:43;5.70;;;2.90;;
72117;SDS011;59992;47.490;8.736;2023-02-20T09:53:19;3.40;;;2.00;;
72117;SDS011;59992;47.490;8.736;2023-02-20T09:55:50;3.20;;;2.20;;
72117;SDS011;59992;47.490;8.736;2023-02-20T09:58:22;3.90;;;1.90;;
72117;SDS011;59992;47.490;8.736;2023-02-20T10:00:56;3.00;;;1.80;;
72117;SDS011;59992;47.490;8.736;2023-02-20T10:03:29;4.10;;;2.10;;
72117;SDS011;59992;47.490;8.736;2023-02-20T10:06:03;4.30;;;2.10;;
72117;SDS011;59992;47.490;8.736;2023-02-20T10:08:41;4.00;;;1.70;;
72117;SDS011;59992;47.490;8.736;2023-02-20T10:11:10;4.90;;;2.20;;
72117;SDS011;59992;47.490;8.736;2023-02-20T10:13:53;3.50;;;1.90;;
72117;SDS011;59992;47.490;8.736;2023-02-20T10:16:32;5.40;;;2.10;;
72117;SDS011;59992;47.490;8.736;2023-02-20T10:19:07;3.60;;;1.70;;
72117;SDS011;59992;47.490;8.736;2023-02-20T10:21:46;3.50;;;1.80;;
72117;SDS011;59992;47.490;8.736;2023-02-20T10:24:25;4.80;;;2.00;;
72117;SDS011;59992;47.490;8.736;2023-02-20T10:27:02;3.30;;;2.00;;
72117;SDS011;59992;47.490;8.736;2023-02-20T10:29:40;4.60;;;1.70;;
72117;SDS011;59992;47.490;8.736;2023-02-20T10:32:11;4.30;;;2.00;;
72117;SDS011;59992;47.490;8.736;2023-02-20T10:34:47;5.10;;;2.20;;
72117;SDS011;59992;47.490;8.736;2023-02-20T10:37:23;5.40;;;1.60;;
72117;SDS011;59992;47.490;8.736;2023-02-20T10:39:55;4.80;;;1.90;;
72117;SDS011;59992;47.490;8.736;2023-02-20T10:42:28;3.90;;;2.10;;
72117;SDS011;59992;47.490;8.736;2023-02-20T10:45:06;2.70;;;1.60;;
72117;SDS011;59992;47.490;8.736;2023-02-20T10:47:39;3.00;;;1.60;;
72117;SDS011;59992;47.490;8.736;2023-02-20T10:50:13;4.80;;;1.90;;
72117;SDS011;59992;47.490;8.736;2023-02-20T10:52:48;3.90;;;2.20;;
72117;SDS011;59992;47.490;8.736;2023-02-20T10:55:22;4.70;;;1.60;;
72117;SDS011;59992;47.490;8.736;2023-02-20T10:57:55;4.90;;;1.80;;
72117;SDS011;59992;47.490;8.736;2023-02-20T11:00:29;2.90;;;1.50;;
72117;SDS011;59992;47.490;8.736;2023-02-20T11:03:05;5.30;;;2.40;;
72117;SDS011;59992;47.490;8.736;2023-02-20T11:05:39;5.30;;;1.90;;
72117;SDS011;59992;47.490;8.736;2023-02-20T11:08:10;3.60;;;1.80;;
72117;SDS011;59992;47.490;8.736;2023-02-20T11:10:39;3.50;;;1.90;;
72117;SDS011;59992;47.490;8.736;2023-02-20T11:13:08;3.30;;;1.90;;
72117;SDS011;59992;47.490;8.736;2023-02-20T11:15:41;4.30;;;2.10;;
72117;SDS011;59992;47.490;8.736;2023-02-20T11:18:16;3.40;;;2.30;;
72117;SDS011;59992;47.490;8.736;2023-02-20T11:20:51;4.10;;;1.80;;
72117;SDS011;59992;47.490;8.736;2023-02-20T11:28:56;6.40;;;2.70;;
72117;SDS011;59992;47.490;8.736;2023-02-20T11:31:28;5.40;;;2.40;;
72117;SDS011;59992;47.490;8.736;2023-02-20T11:33:56;4.20;;;2.40;;
72117;SDS011;59992;47.490;8.736;2023-02-20T11:36:26;4.80;;;2.40;;
72117;SDS011;59992;47.490;8.736;2023-02-20T11:38:59;5.60;;;3.10;;
72117;SDS011;59992;47.490;8.736;2023-02-20T11:41:32;4.50;;;2.80;;
72117;SDS011;59992;47.490;8.736;2023-02-20T11:44:15;4.70;;;2.40;;
72117;SDS011;59992;47.490;8.736;2023-02-20T11:46:46;4.30;;;2.50;;
72117;SDS011;59992;47.490;8.736;2023-02-20T11:49:33;5.60;;;2.60;;
72117;SDS011;59992;47.490;8.736;2023-02-20T11:52:06;5.30;;;2.40;;
72117;SDS011;59992;47.490;8.736;2023-02-20T11:54:41;5.20;;;3.10;;
72117;SDS011;59992;47.490;8.736;2023-02-20T11:57:19;5.20;;;2.70;;
72117;SDS011;59992;47.490;8.736;2023-02-20T12:00:06;4.50;;;2.60;;
72117;SDS011;59992;47.490;8.736;2023-02-20T12:02:37;6.40;;;2.70;;
72117;SDS011;59992;47.490;8.736;2023-02-20T12:05:16;4.20;;;2.90;;
72117;SDS011;59992;47.490;8.736;2023-02-20T12:07:52;5.00;;;2.70;;
72117;SDS011;59992;47.490;8.736;2023-02-20T12:10:26;5.20;;;2.80;;
72117;SDS011;59992;47.490;8.736;2023-02-20T12:13:00;5.00;;;2.30;;
72117;SDS011;59992;47.490;8.736;2023-02-20T12:15:29;4.80;;;2.30;;
72117;SDS011;59992;47.490;8.736;2023-02-20T12:18:05;5.30;;;2.30;;
72117;SDS011;59992;47.490;8.736;2023-02-20T12:20:51;3.70;;;1.90;;
72117;SDS011;59992;47.490;8.736;2023-02-20T12:23:28;3.60;;;2.20;;
72117;SDS011;59992;47.490;8.736;2023-02-20T12:26:07;5.40;;;2.10;;
72117;SDS011;59992;47.490;8.736;2023-02-20T12:28:49;6.70;;;2.60;;
72117;SDS011;59992;47.490;8.736;2023-02-20T12:31:28;5.10;;;2.30;;
72117;SDS011;59992;47.490;8.736;2023-02-20T12:34:09;3.40;;;1.60;;
72117;SDS011;59992;47.490;8.736;2023-02-20T12:36:51;5.50;;;2.40;;
72117;SDS011;59992;47.490;8.736;2023-02-20T12:39:27;4.40;;;2.20;;
72117;SDS011;59992;47.490;8.736;2023-02-20T12:42:08;5.20;;;2.00;;
72117;SDS011;59992;47.490;8.736;2023-02-20T12:44:50;4.80;;;2.40;;
72117;SDS011;59992;47.490;8.736;2023-02-20T12:47:30;5.30;;;2.70;;
72117;SDS011;59992;47.490;8.736;2023-02-20T12:53:03;5.40;;;2.60;;
72117;SDS011;59992;47.490;8.736;2023-02-20T12:55:51;4.90;;;2.40;;
72117;SDS011;59992;47.490;8.736;2023-02-20T12:58:34;4.80;;;2.30;;
72117;SDS011;59992;47.490;8.736;2023-02-20T13:01:16;5.60;;;2.00;;
72117;SDS011;59992;47.490;8.736;2023-02-20T13:03:51;3.80;;;2.20;;
72117;SDS011;59992;47.490;8.736;2023-02-20T13:06:31;4.80;;;2.00;;
72117;SDS011;59992;47.490;8.736;2023-02-20T13:09:06;4.20;;;1.60;;
72117;SDS011;59992;47.490;8.736;2023-02-20T13:11:44;4.00;;;2.20;;
72117;SDS011;59992;47.490;8.736;2023-02-20T13:14:22;3.50;;;1.70;;
72117;SDS011;59992;47.490;8.736;2023-02-20T13:16:59;3.00;;;1.40;;
72117;SDS011;59992;47.490;8.736;2023-02-20T13:19:38;8.10;;;1.50;;
72117;SDS011;59992;47.490;8.736;2023-02-20T13:22:10;2.70;;;1.40;;
72117;SDS011;59992;47.490;8.736;2023-02-20T13:24:38;2.30;;;1.40;;
72117;SDS011;59992;47.490;8.736;2023-02-20T13:27:07;3.70;;;1.50;;
72117;SDS011;59992;47.490;8.736;2023-02-20T13:29:36;3.40;;;1.20;;
72117;SDS011;59992;47.490;8.736;2023-02-20T13:34:50;3.20;;;1.10;;
72117;SDS011;59992;47.490;8.736;2023-02-20T13:43:25;1.60;;;1.10;;
72117;SDS011;59992;47.490;8.736;2023-02-20T13:46:09;3.30;;;1.00;;
72117;SDS011;59992;47.490;8.736;2023-02-20T13:48:48;2.90;;;1.30;;
72117;SDS011;59992;47.490;8.736;2023-02-20T13:56:53;3.00;;;1.50;;
72117;SDS011;59992;47.490;8.736;2023-02-20T13:59:25;3.70;;;1.00;;
72117;SDS011;59992;47.490;8.736;2023-02-20T14:01:55;2.70;;;1.30;;
72117;SDS011;59992;47.490;8.736;2023-02-20T14:04:26;1.70;;;0.80;;
72117;SDS011;59992;47.490;8.736;2023-02-20T14:06:54;2.80;;;0.90;;
72117;SDS011;59992;47.490;8.736;2023-02-20T14:09:23;2.10;;;1.20;;
72117;SDS011;59992;47.490;8.736;2023-02-20T14:12:02;2.70;;;1.40;;
72117;SDS011;59992;47.490;8.736;2023-02-20T14:14:34;2.20;;;1.00;;
72117;SDS011;59992;47.490;8.736;2023-02-20T14:17:06;2.90;;;1.20;;
72117;SDS011;59992;47.490;8.736;2023-02-20T14:19:40;2.30;;;1.20;;
72117;SDS011;59992;47.490;8.736;2023-02-20T14:28:09;5.70;;;1.30;;
72117;SDS011;59992;47.490;8.736;2023-02-20T14:30:39;2.40;;;1.50;;
72117;SDS011;59992;47.490;8.736;2023-02-20T14:33:18;3.30;;;1.60;;
72117;SDS011;59992;47.490;8.736;2023-02-20T14:35:56;2.10;;;1.20;;
72117;SDS011;59992;47.490;8.736;2023-02-20T14:39:07;2.20;;;1.10;;
72117;SDS011;59992;47.490;8.736;2023-02-20T14:41:51;2.30;;;1.00;;
72117;SDS011;59992;47.490;8.736;2023-02-20T14:44:20;3.80;;;1.00;;
72117;SDS011;59992;47.490;8.736;2023-02-20T14:46:51;3.60;;;1.20;;
72117;SDS011;59992;47.490;8.736;2023-02-20T14:49:24;2.00;;;1.20;;
72117;SDS011;59992;47.490;8.736;2023-02-20T14:52:03;2.70;;;1.10;;
72117;SDS011;59992;47.490;8.736;2023-02-20T14:54:39;4.10;;;1.20;;
72117;SDS011;59992;47.490;8.736;2023-02-20T14:57:08;2.90;;;1.00;;
72117;SDS011;59992;47.490;8.736;2023-02-20T14:59:39;3.20;;;1.10;;
72117;SDS011;59992;47.490;8.736;2023-02-20T15:02:15;4.40;;;1.20;;
72117;SDS011;59992;47.490;8.736;2023-02-20T15:04:48;3.80;;;1.30;;
72117;SDS011;59992;47.490;8.736;2023-02-20T15:07:20;3.40;;;1.30;;
72117;SDS011;59992;47.490;8.736;2023-02-20T15:09:51;3.20;;;1.20;;
72117;SDS011;59992;47.490;8.736;2023-02-20T15:12:22;2.30;;;1.00;;
72117;SDS011;59992;47.490;8.736;2023-02-20T15:14:54;2.60;;;1.00;;
72117;SDS011;59992;47.490;8.736;2023-02-20T15:17:25;2.70;;;1.10;;
72117;SDS011;59992;47.490;8.736;2023-02-20T15:19:54;3.20;;;1.20;;
72117;SDS011;59992;47.490;8.736;2023-02-20T15:22:24;5.30;;;1.20;;
72117;SDS011;59992;47.490;8.736;2023-02-20T15:24:54;2.30;;;1.00;;
72117;SDS011;59992;47.490;8.736;2023-02-20T15:27:38;4.30;;;1.20;;
72117;SDS011;59992;47.490;8.736;2023-02-20T15:30:26;2.10;;;1.10;;
72117;SDS011;59992;47.490;8.736;2023-02-20T15:32:54;1.50;;;0.80;;
72117;SDS011;59992;47.490;8.736;2023-02-20T15:35:23;2.70;;;0.90;;
72117;SDS011;59992;47.490;8.736;2023-02-20T15:37:53;7.50;;;1.30;;
72117;SDS011;59992;47.490;8.736;2023-02-20T15:40:22;1.80;;;1.00;;
72117;SDS011;59992;47.490;8.736;2023-02-20T15:42:52;5.20;;;1.10;;
72117;SDS011;59992;47.490;8.736;2023-02-20T15:45:22;3.90;;;1.10;;
72117;SDS011;59992;47.490;8.736;2023-02-20T15:47:50;1.80;;;0.90;;
72117;SDS011;59992;47.490;8.736;2023-02-20T15:50:18;3.50;;;1.20;;
72117;SDS011;59992;47.490;8.736;2023-02-20T15:52:46;2.40;;;1.20;;